John M Carras — SVBK5 — position and weather

sailwx.info

Track history (hours):
 
Tides and Currents Weather Stations Pressure Air Temp Water Temp Dewpoint Dewpoint Depression Visibility Wind Speed Wind Dir Waves Ship Positions

John M Carras

Last reported at 2015-Mar-27 01:32 UTC. Time now 2015-Mar-27 02:03 UTC.
Position N 43°22' E 003°44'.

Length 229 m; draft 11.8 m.

Type: Cargo ship. MMSI: 241150000.

Date/timePositionNaut miles runAvg speedWind from/ knotsBaromVisibWave heightAir tempDewpointWater temp
2015-Mar-27 01:32N 43°22' E 003°44'0 0.0
2015-Mar-27 00:31N 43°22' E 003°44'0 0.0
2015-Mar-26 23:32N 43°22' E 003°44'0 0.1
2015-Mar-26 22:32N 43°22' E 003°44'0 0.1
2015-Mar-26 21:31N 43°22' E 003°44'0 0.0
2015-Mar-26 20:32N 43°22' E 003°44'0 0.0
2015-Mar-26 19:31N 43°22' E 003°44'0 0.0
2015-Mar-26 18:25N 43°22' E 003°44'0 0.0
2015-Mar-26 17:32N 43°22' E 003°44'0 0.0
2015-Mar-26 14:31N 43°22' E 003°44'0 0.0
2015-Mar-26 13:33N 43°22' E 003°44'0 0.0
2015-Mar-26 12:24N 43°22' E 003°44'0 0.0
2015-Mar-26 11:20N 43°22' E 003°44'0 0.0
2015-Mar-26 10:33N 43°22' E 003°44'0 0.0
2015-Mar-26 09:31N 43°22' E 003°44'0 0.0
2015-Mar-26 07:20N 43°22' E 003°44'1 1.6
2015-Mar-26 06:29N 43°21' E 003°46'5 5.2
2015-Mar-26 05:29N 43°18' E 003°51'5 5.2
2015-Mar-26 04:29N 43°13' E 003°54'5 4.7
2015-Mar-26 03:29N 43°09' E 003°53'5 5.2
2015-Mar-26 02:30N 43°03' E 003°53'6 5.5
2015-Mar-26 01:30N 42°58' E 003°53'5 5.3
2015-Mar-26 00:33N 42°53' E 003°51'8 7.8
2015-Mar-25 23:33N 42°46' E 003°49'18 8.5
2015-Mar-25 21:29N 42°29' E 003°42'9 7.4
2015-Mar-25 20:14N 42°20' E 003°38'11 6.1
2015-Mar-25 18:29N 42°09' E 003°35'9 6.3
2015-Mar-25 17:05N 42°01' E 003°31'5 6.1
2015-Mar-25 16:15N 41°57' E 003°27'6 7.5
2015-Mar-25 15:26N 41°52' E 003°23'18 8.7
2015-Mar-25 13:23N 41°37' E 003°09'11 9.0
2015-Mar-25 12:07N 41°28' E 003°00'910.0
2015-Mar-25 11:11N 41°20' E 002°53'7 9.7
2015-Mar-25 10:30N 41°15' E 002°48'1010.6
2015-Mar-25 09:33N 41°07' E 002°40'1111.1
2015-Mar-25 08:33N 40°58' E 002°32'1212.0
2015-Mar-25 07:33N 40°48' E 002°23'1111.1
2015-Mar-25 06:33N 40°39' E 002°14'1111.4
2015-Mar-25 05:33N 40°29' E 002°06'1111.2
2015-Mar-25 04:33N 40°20' E 001°57'1110.9
2015-Mar-25 03:33N 40°11' E 001°49'1111.3
2015-Mar-25 02:33N 40°02' E 001°40'1111.2
2015-Mar-25 01:33N 39°53' E 001°32'1111.0
2015-Mar-25 00:33N 39°44' E 001°24'1611.5
2015-Mar-24 23:11N 39°31' E 001°11'913.1
2015-Mar-24 22:28N 39°23' E 001°05'9513.6
2015-Mar-24 15:30N 38°05' W 000°04'1212.4
2015-Mar-24 14:32N 37°55' W 000°12'1212.6
2015-Mar-24 13:34N 37°45' W 000°21'1312.6
2015-Mar-24 12:33N 37°34' W 000°30'1312.7
2015-Mar-24 11:33N 37°26' W 000°42'1313.0
2015-Mar-24 10:33N 37°17' W 000°54'1713.3
2015-Mar-24 09:16N 37°06' W 001°10'20412.2
2015-Mar-23 16:33N 36°05' W 005°13'7 6.2
2015-Mar-23 15:23N 36°07' W 005°22'0 0.1
2015-Mar-23 14:20N 36°07' W 005°22'0 0.1
2015-Mar-23 13:32N 36°07' W 005°22'0 0.2
2015-Mar-23 12:32N 36°07' W 005°22'0 0.1
2015-Mar-23 11:29N 36°07' W 005°22'0 0.0
2015-Mar-23 10:32N 36°07' W 005°22'0 0.0
2015-Mar-23 09:32N 36°07' W 005°22'0 0.0
2015-Mar-23 08:29N 36°07' W 005°22'0 0.0
2015-Mar-23 07:32N 36°07' W 005°22'0 0.0
2015-Mar-23 06:23N 36°07' W 005°22'0 0.0
2015-Mar-23 05:29N 36°07' W 005°22'0 0.0
2015-Mar-23 04:29N 36°07' W 005°22'0 0.1
2015-Mar-23 03:32N 36°07' W 005°22'0 0.0
2015-Mar-23 02:32N 36°07' W 005°22'0 0.0
2015-Mar-23 01:32N 36°07' W 005°22'1 1.1
2015-Mar-23 00:34N 36°06' W 005°22'7 7.0
2015-Mar-22 23:34N 36°06' W 005°13'4 4.1
2015-Mar-22 22:33N 36°07' W 005°08'1 0.4
2015-Mar-22 21:24N 36°07' W 005°08'0 0.3
2015-Mar-22 20:06N 36°08' W 005°08'1 1.2
2015-Mar-22 19:22N 36°07' W 005°08'7 8.2
2015-Mar-22 18:33N 36°04' W 005°16'1312.7
2015-Mar-22 17:34N 35°58' W 005°29'1515.1
2015-Mar-22 16:33N 35°53' W 005°47'61412.7
2015-Mar-20 16:24N 28°50' W 014°33'1011.5
2015-Mar-20 15:33N 28°44' W 014°41'1211.7
2015-Mar-20 14:33N 28°36' W 014°51'1212.0
2015-Mar-20 13:33N 28°27' W 015°00'1212.1
2015-Mar-20 12:33N 28°18' W 015°10'1211.9
2015-Mar-20 11:33N 28°09' W 015°19'3 3.1
2015-Mar-20 10:33N 28°07' W 015°21'6 5.5
2015-Mar-20 09:33N 28°03' W 015°17'1211.9
2015-Mar-20 08:33N 27°52' W 015°13'1212.2
2015-Mar-20 07:33N 27°39' W 015°12'2712.3
2015-Mar-20 05:23N 27°15' W 015°23'  
Track history (hours):
 
Tides and Currents Weather Stations Pressure Air Temp Water Temp Dewpoint Dewpoint Depression Visibility Wind Speed Wind Dir Waves Ship Positions

John M Carras

Last reported at 2015-Mar-27 01:32 UTC. Time now 2015-Mar-27 02:03 UTC.
Position N 43°22' E 003°44'.

Length 229 m; draft 11.8 m.

Type: Cargo ship. MMSI: 241150000.

Date/timePositionNaut miles runAvg speedWind from/ knotsBaromVisibWave heightAir tempDewpointWater temp
2015-Mar-27 01:32N 43°22' E 003°44'0 0.0
2015-Mar-27 00:31N 43°22' E 003°44'0 0.0
2015-Mar-26 23:32N 43°22' E 003°44'0 0.1
2015-Mar-26 22:32N 43°22' E 003°44'0 0.1
2015-Mar-26 21:31N 43°22' E 003°44'0 0.0
2015-Mar-26 20:32N 43°22' E 003°44'0 0.0
2015-Mar-26 19:31N 43°22' E 003°44'0 0.0
2015-Mar-26 18:25N 43°22' E 003°44'0 0.0
2015-Mar-26 17:32N 43°22' E 003°44'0 0.0
2015-Mar-26 14:31N 43°22' E 003°44'0 0.0
2015-Mar-26 13:33N 43°22' E 003°44'0 0.0
2015-Mar-26 12:24N 43°22' E 003°44'0 0.0
2015-Mar-26 11:20N 43°22' E 003°44'0 0.0
2015-Mar-26 10:33N 43°22' E 003°44'0 0.0
2015-Mar-26 09:31N 43°22' E 003°44'0 0.0
2015-Mar-26 07:20N 43°22' E 003°44'1 1.6
2015-Mar-26 06:29N 43°21' E 003°46'5 5.2
2015-Mar-26 05:29N 43°18' E 003°51'5 5.2
2015-Mar-26 04:29N 43°13' E 003°54'5 4.7
2015-Mar-26 03:29N 43°09' E 003°53'5 5.2
2015-Mar-26 02:30N 43°03' E 003°53'6 5.5
2015-Mar-26 01:30N 42°58' E 003°53'5 5.3
2015-Mar-26 00:33N 42°53' E 003°51'8 7.8
2015-Mar-25 23:33N 42°46' E 003°49'18 8.5
2015-Mar-25 21:29N 42°29' E 003°42'9 7.4
2015-Mar-25 20:14N 42°20' E 003°38'11 6.1
2015-Mar-25 18:29N 42°09' E 003°35'9 6.3
2015-Mar-25 17:05N 42°01' E 003°31'5 6.1
2015-Mar-25 16:15N 41°57' E 003°27'6 7.5
2015-Mar-25 15:26N 41°52' E 003°23'18 8.7
2015-Mar-25 13:23N 41°37' E 003°09'11 9.0
2015-Mar-25 12:07N 41°28' E 003°00'910.0
2015-Mar-25 11:11N 41°20' E 002°53'7 9.7
2015-Mar-25 10:30N 41°15' E 002°48'1010.6
2015-Mar-25 09:33N 41°07' E 002°40'1111.1
2015-Mar-25 08:33N 40°58' E 002°32'1212.0
2015-Mar-25 07:33N 40°48' E 002°23'1111.1
2015-Mar-25 06:33N 40°39' E 002°14'1111.4
2015-Mar-25 05:33N 40°29' E 002°06'1111.2
2015-Mar-25 04:33N 40°20' E 001°57'1110.9
2015-Mar-25 03:33N 40°11' E 001°49'1111.3
2015-Mar-25 02:33N 40°02' E 001°40'1111.2
2015-Mar-25 01:33N 39°53' E 001°32'1111.0
2015-Mar-25 00:33N 39°44' E 001°24'1611.5
2015-Mar-24 23:11N 39°31' E 001°11'913.1
2015-Mar-24 22:28N 39°23' E 001°05'9513.6
2015-Mar-24 15:30N 38°05' W 000°04'1212.4
2015-Mar-24 14:32N 37°55' W 000°12'1212.6
2015-Mar-24 13:34N 37°45' W 000°21'1312.6
2015-Mar-24 12:33N 37°34' W 000°30'1312.7
2015-Mar-24 11:33N 37°26' W 000°42'1313.0
2015-Mar-24 10:33N 37°17' W 000°54'1713.3
2015-Mar-24 09:16N 37°06' W 001°10'20412.2
2015-Mar-23 16:33N 36°05' W 005°13'7 6.2
2015-Mar-23 15:23N 36°07' W 005°22'0 0.1
2015-Mar-23 14:20N 36°07' W 005°22'0 0.1
2015-Mar-23 13:32N 36°07' W 005°22'0 0.2
2015-Mar-23 12:32N 36°07' W 005°22'0 0.1
2015-Mar-23 11:29N 36°07' W 005°22'0 0.0
2015-Mar-23 10:32N 36°07' W 005°22'0 0.0
2015-Mar-23 09:32N 36°07' W 005°22'0 0.0
2015-Mar-23 08:29N 36°07' W 005°22'0 0.0
2015-Mar-23 07:32N 36°07' W 005°22'0 0.0
2015-Mar-23 06:23N 36°07' W 005°22'0 0.0
2015-Mar-23 05:29N 36°07' W 005°22'0 0.0
2015-Mar-23 04:29N 36°07' W 005°22'0 0.1
2015-Mar-23 03:32N 36°07' W 005°22'0 0.0
2015-Mar-23 02:32N 36°07' W 005°22'0 0.0
2015-Mar-23 01:32N 36°07' W 005°22'1 1.1
2015-Mar-23 00:34N 36°06' W 005°22'7 7.0
2015-Mar-22 23:34N 36°06' W 005°13'4 4.1
2015-Mar-22 22:33N 36°07' W 005°08'1 0.4
2015-Mar-22 21:24N 36°07' W 005°08'0 0.3
2015-Mar-22 20:06N 36°08' W 005°08'1 1.2
2015-Mar-22 19:22N 36°07' W 005°08'7 8.2
2015-Mar-22 18:33N 36°04' W 005°16'1312.7
2015-Mar-22 17:34N 35°58' W 005°29'1515.1
2015-Mar-22 16:33N 35°53' W 005°47'61412.7
2015-Mar-20 16:24N 28°50' W 014°33'1011.5
2015-Mar-20 15:33N 28°44' W 014°41'1211.7
2015-Mar-20 14:33N 28°36' W 014°51'1212.0
2015-Mar-20 13:33N 28°27' W 015°00'1212.1
2015-Mar-20 12:33N 28°18' W 015°10'1211.9
2015-Mar-20 11:33N 28°09' W 015°19'3 3.1
2015-Mar-20 10:33N 28°07' W 015°21'6 5.5
2015-Mar-20 09:33N 28°03' W 015°17'1211.9
2015-Mar-20 08:33N 27°52' W 015°13'1212.2
2015-Mar-20 07:33N 27°39' W 015°12'2712.3
2015-Mar-20 05:23N 27°15' W 015°23'  

Dump ship's entire track history